sensor_id;sensor_type;location;lat;lon;timestamp;temperature;humidity
40289;DHT22;28991;52.028;5.526;2023-07-13T00:02:16;25.30;54.60
40289;DHT22;28991;52.028;5.526;2023-07-13T00:04:42;25.20;54.50
40289;DHT22;28991;52.028;5.526;2023-07-13T00:07:08;25.20;54.50
40289;DHT22;28991;52.028;5.526;2023-07-13T00:09:34;25.20;54.50
40289;DHT22;28991;52.028;5.526;2023-07-13T00:12:01;25.20;54.50
40289;DHT22;28991;52.028;5.526;2023-07-13T00:14:28;25.30;54.60
40289;DHT22;28991;52.028;5.526;2023-07-13T00:16:55;25.30;54.60
40289;DHT22;28991;52.028;5.526;2023-07-13T00:19:21;25.20;54.60
40289;DHT22;28991;52.028;5.526;2023-07-13T00:21:47;25.20;54.50
40289;DHT22;28991;52.028;5.526;2023-07-13T00:24:17;25.30;54.60
40289;DHT22;28991;52.028;5.526;2023-07-13T00:26:48;25.20;54.60
40289;DHT22;28991;52.028;5.526;2023-07-13T00:29:14;25.20;54.60
40289;DHT22;28991;52.028;5.526;2023-07-13T00:31:40;25.20;54.60
40289;DHT22;28991;52.028;5.526;2023-07-13T00:34:05;25.30;54.70
40289;DHT22;28991;52.028;5.526;2023-07-13T00:36:31;25.20;54.60
40289;DHT22;28991;52.028;5.526;2023-07-13T00:38:57;25.20;54.60
40289;DHT22;28991;52.028;5.526;2023-07-13T00:41:23;25.20;54.60
40289;DHT22;28991;52.028;5.526;2023-07-13T00:43:48;25.20;54.60
40289;DHT22;28991;52.028;5.526;2023-07-13T00:46:19;25.20;55.10
40289;DHT22;28991;52.028;5.526;2023-07-13T00:48:47;25.20;54.60
40289;DHT22;28991;52.028;5.526;2023-07-13T00:51:15;25.20;54.60
40289;DHT22;28991;52.028;5.526;2023-07-13T00:53:42;25.20;54.60
40289;DHT22;28991;52.028;5.526;2023-07-13T00:56:08;25.20;54.60
40289;DHT22;28991;52.028;5.526;2023-07-13T00:58:35;25.20;54.60
40289;DHT22;28991;52.028;5.526;2023-07-13T01:01:01;25.20;54.60
40289;DHT22;28991;52.028;5.526;2023-07-13T01:03:26;25.20;54.60
40289;DHT22;28991;52.028;5.526;2023-07-13T01:05:55;25.20;54.60
40289;DHT22;28991;52.028;5.526;2023-07-13T01:08:21;25.20;54.60
40289;DHT22;28991;52.028;5.526;2023-07-13T01:10:57;25.20;54.60
40289;DHT22;28991;52.028;5.526;2023-07-13T01:13:26;25.20;54.60
40289;DHT22;28991;52.028;5.526;2023-07-13T01:15:52;25.20;54.60
40289;DHT22;28991;52.028;5.526;2023-07-13T01:18:23;25.20;54.60
40289;DHT22;28991;52.028;5.526;2023-07-13T01:21:02;25.20;55.20
40289;DHT22;28991;52.028;5.526;2023-07-13T01:23:29;25.20;54.60
40289;DHT22;28991;52.028;5.526;2023-07-13T01:25:56;25.20;54.60
40289;DHT22;28991;52.028;5.526;2023-07-13T01:28:23;25.20;54.60
40289;DHT22;28991;52.028;5.526;2023-07-13T01:30:53;25.20;54.60
40289;DHT22;28991;52.028;5.526;2023-07-13T01:33:19;25.20;54.60
40289;DHT22;28991;52.028;5.526;2023-07-13T01:35:45;25.20;54.60
40289;DHT22;28991;52.028;5.526;2023-07-13T01:38:13;25.20;54.60
40289;DHT22;28991;52.028;5.526;2023-07-13T01:40:40;25.20;54.60
40289;DHT22;28991;52.028;5.526;2023-07-13T01:43:06;25.20;54.60
40289;DHT22;28991;52.028;5.526;2023-07-13T01:45:32;25.10;54.60
40289;DHT22;28991;52.028;5.526;2023-07-13T01:47:57;25.10;54.60
40289;DHT22;28991;52.028;5.526;2023-07-13T01:50:24;25.10;54.60
40289;DHT22;28991;52.028;5.526;2023-07-13T01:52:50;25.20;54.70
40289;DHT22;28991;52.028;5.526;2023-07-13T01:55:16;25.10;54.60
40289;DHT22;28991;52.028;5.526;2023-07-13T01:57:41;25.10;54.60
40289;DHT22;28991;52.028;5.526;2023-07-13T02:00:09;25.10;54.60
40289;DHT22;28991;52.028;5.526;2023-07-13T02:02:35;25.20;54.70
40289;DHT22;28991;52.028;5.526;2023-07-13T02:05:01;25.10;54.60
40289;DHT22;28991;52.028;5.526;2023-07-13T02:07:27;25.20;54.70
40289;DHT22;28991;52.028;5.526;2023-07-13T02:09:52;25.10;54.60
40289;DHT22;28991;52.028;5.526;2023-07-13T02:12:20;25.10;54.60
40289;DHT22;28991;52.028;5.526;2023-07-13T02:14:45;25.10;54.60
40289;DHT22;28991;52.028;5.526;2023-07-13T02:17:11;25.10;54.60
40289;DHT22;28991;52.028;5.526;2023-07-13T02:19:37;25.10;54.60
40289;DHT22;28991;52.028;5.526;2023-07-13T02:22:03;25.10;54.60
40289;DHT22;28991;52.028;5.526;2023-07-13T02:24:29;25.10;54.60
40289;DHT22;28991;52.028;5.526;2023-07-13T02:26:54;25.10;54.60
40289;DHT22;28991;52.028;5.526;2023-07-13T02:29:20;25.10;54.70
40289;DHT22;28991;52.028;5.526;2023-07-13T02:31:46;25.10;54.60
40289;DHT22;28991;52.028;5.526;2023-07-13T02:34:12;25.10;54.60
40289;DHT22;28991;52.028;5.526;2023-07-13T02:36:37;25.10;54.60
40289;DHT22;28991;52.028;5.526;2023-07-13T02:39:06;25.10;54.70
40289;DHT22;28991;52.028;5.526;2023-07-13T02:41:31;25.10;54.60
40289;DHT22;28991;52.028;5.526;2023-07-13T02:44:00;25.10;54.60
40289;DHT22;28991;52.028;5.526;2023-07-13T02:46:30;25.10;54.60
40289;DHT22;28991;52.028;5.526;2023-07-13T02:48:56;25.10;54.60
40289;DHT22;28991;52.028;5.526;2023-07-13T02:51:21;25.10;54.70
40289;DHT22;28991;52.028;5.526;2023-07-13T02:53:47;25.10;54.70
40289;DHT22;28991;52.028;5.526;2023-07-13T02:56:13;25.10;54.60
40289;DHT22;28991;52.028;5.526;2023-07-13T02:58:38;25.10;54.70
40289;DHT22;28991;52.028;5.526;2023-07-13T03:01:11;25.10;54.70
40289;DHT22;28991;52.028;5.526;2023-07-13T03:03:37;25.10;54.70
40289;DHT22;28991;52.028;5.526;2023-07-13T03:06:04;25.10;54.70
40289;DHT22;28991;52.028;5.526;2023-07-13T03:08:31;25.10;54.70
40289;DHT22;28991;52.028;5.526;2023-07-13T03:11:01;25.10;54.70
40289;DHT22;28991;52.028;5.526;2023-07-13T03:13:27;25.10;54.70
40289;DHT22;28991;52.028;5.526;2023-07-13T03:15:53;25.10;54.70
40289;DHT22;28991;52.028;5.526;2023-07-13T03:18:18;25.10;54.70
40289;DHT22;28991;52.028;5.526;2023-07-13T03:20:44;25.10;54.70
40289;DHT22;28991;52.028;5.526;2023-07-13T03:23:10;25.10;54.70
40289;DHT22;28991;52.028;5.526;2023-07-13T03:25:35;25.10;54.70
40289;DHT22;28991;52.028;5.526;2023-07-13T03:28:01;25.10;54.70
40289;DHT22;28991;52.028;5.526;2023-07-13T03:30:26;25.10;54.70
40289;DHT22;28991;52.028;5.526;2023-07-13T03:32:52;25.00;54.60
40289;DHT22;28991;52.028;5.526;2023-07-13T03:35:18;25.10;54.70
40289;DHT22;28991;52.028;5.526;2023-07-13T03:37:43;25.10;54.70
40289;DHT22;28991;52.028;5.526;2023-07-13T03:40:10;25.10;54.70
40289;DHT22;28991;52.028;5.526;2023-07-13T03:42:36;25.10;54.70
40289;DHT22;28991;52.028;5.526;2023-07-13T03:45:02;25.10;54.70
40289;DHT22;28991;52.028;5.526;2023-07-13T03:47:27;25.00;54.60
40289;DHT22;28991;52.028;5.526;2023-07-13T03:49:53;25.10;54.70
40289;DHT22;28991;52.028;5.526;2023-07-13T03:52:19;25.00;54.70
40289;DHT22;28991;52.028;5.526;2023-07-13T03:54:44;25.10;54.70
40289;DHT22;28991;52.028;5.526;2023-07-13T03:57:10;25.10;54.70
40289;DHT22;28991;52.028;5.526;2023-07-13T03:59:36;25.10;54.70
40289;DHT22;28991;52.028;5.526;2023-07-13T04:02:02;25.00;54.70
40289;DHT22;28991;52.028;5.526;2023-07-13T04:04:29;25.10;54.70
40289;DHT22;28991;52.028;5.526;2023-07-13T04:06:57;25.00;55.20
40289;DHT22;28991;52.028;5.526;2023-07-13T04:09:24;25.10;54.70
40289;DHT22;28991;52.028;5.526;2023-07-13T04:11:50;25.10;54.40
40289;DHT22;28991;52.028;5.526;2023-07-13T04:14:16;25.00;53.90
40289;DHT22;28991;52.028;5.526;2023-07-13T04:16:42;25.00;54.00
40289;DHT22;28991;52.028;5.526;2023-07-13T04:19:09;25.00;53.10
40289;DHT22;28991;52.028;5.526;2023-07-13T04:21:36;24.90;52.70
40289;DHT22;28991;52.028;5.526;2023-07-13T04:24:02;24.90;52.40
40289;DHT22;28991;52.028;5.526;2023-07-13T04:26:28;24.90;52.30
40289;DHT22;28991;52.028;5.526;2023-07-13T04:28:55;24.90;52.20
40289;DHT22;28991;52.028;5.526;2023-07-13T04:31:21;24.80;52.10
40289;DHT22;28991;52.028;5.526;2023-07-13T04:33:47;24.70;52.10
40289;DHT22;28991;52.028;5.526;2023-07-13T04:36:15;24.70;52.10
40289;DHT22;28991;52.028;5.526;2023-07-13T04:38:41;24.60;52.20
40289;DHT22;28991;52.028;5.526;2023-07-13T04:41:08;24.60;52.20
40289;DHT22;28991;52.028;5.526;2023-07-13T04:43:34;24.60;52.30
40289;DHT22;28991;52.028;5.526;2023-07-13T04:46:08;24.50;52.30
40289;DHT22;28991;52.028;5.526;2023-07-13T04:48:34;24.50;52.40
40289;DHT22;28991;52.028;5.526;2023-07-13T04:51:01;24.40;52.40
40289;DHT22;28991;52.028;5.526;2023-07-13T04:53:27;24.40;52.50
40289;DHT22;28991;52.028;5.526;2023-07-13T04:55:53;24.40;52.50
40289;DHT22;28991;52.028;5.526;2023-07-13T04:58:19;24.40;52.60
40289;DHT22;28991;52.028;5.526;2023-07-13T05:00:44;24.40;52.70
40289;DHT22;28991;52.028;5.526;2023-07-13T05:03:10;24.40;52.80
40289;DHT22;28991;52.028;5.526;2023-07-13T05:05:36;24.40;52.90
40289;DHT22;28991;52.028;5.526;2023-07-13T05:08:01;24.30;52.90
40289;DHT22;28991;52.028;5.526;2023-07-13T05:10:27;24.30;53.00
40289;DHT22;28991;52.028;5.526;2023-07-13T05:12:53;24.30;53.00
40289;DHT22;28991;52.028;5.526;2023-07-13T05:15:21;24.30;53.10
40289;DHT22;28991;52.028;5.526;2023-07-13T05:17:47;24.30;53.20
40289;DHT22;28991;52.028;5.526;2023-07-13T05:20:13;24.20;53.30
40289;DHT22;28991;52.028;5.526;2023-07-13T05:22:39;24.20;53.30
40289;DHT22;28991;52.028;5.526;2023-07-13T05:25:05;24.20;53.40
40289;DHT22;28991;52.028;5.526;2023-07-13T05:27:32;24.20;53.50
40289;DHT22;28991;52.028;5.526;2023-07-13T05:29:57;24.20;53.60
40289;DHT22;28991;52.028;5.526;2023-07-13T05:32:23;24.20;53.70
40289;DHT22;28991;52.028;5.526;2023-07-13T05:34:49;24.20;53.80
40289;DHT22;28991;52.028;5.526;2023-07-13T05:37:14;24.10;53.70
40289;DHT22;28991;52.028;5.526;2023-07-13T05:39:40;24.10;53.70
40289;DHT22;28991;52.028;5.526;2023-07-13T05:42:06;24.20;53.90
40289;DHT22;28991;52.028;5.526;2023-07-13T05:44:31;24.10;53.90
40289;DHT22;28991;52.028;5.526;2023-07-13T05:46:57;24.10;54.00
40289;DHT22;28991;52.028;5.526;2023-07-13T05:49:23;24.10;54.10
40289;DHT22;28991;52.028;5.526;2023-07-13T05:51:49;24.10;54.20
40289;DHT22;28991;52.028;5.526;2023-07-13T05:54:14;24.10;54.30
40289;DHT22;28991;52.028;5.526;2023-07-13T05:56:40;24.10;54.40
40289;DHT22;28991;52.028;5.526;2023-07-13T05:59:06;24.10;54.40
40289;DHT22;28991;52.028;5.526;2023-07-13T06:01:31;24.10;54.50
40289;DHT22;28991;52.028;5.526;2023-07-13T06:03:57;24.10;54.50
40289;DHT22;28991;52.028;5.526;2023-07-13T06:06:23;24.10;54.40
40289;DHT22;28991;52.028;5.526;2023-07-13T06:08:49;24.10;54.40
40289;DHT22;28991;52.028;5.526;2023-07-13T06:11:17;24.10;54.30
40289;DHT22;28991;52.028;5.526;2023-07-13T06:13:44;24.20;54.30
40289;DHT22;28991;52.028;5.526;2023-07-13T06:16:12;24.20;54.20
40289;DHT22;28991;52.028;5.526;2023-07-13T06:18:39;24.20;54.10
40289;DHT22;28991;52.028;5.526;2023-07-13T06:21:10;24.30;54.00
40289;DHT22;28991;52.028;5.526;2023-07-13T06:23:37;24.30;54.00
40289;DHT22;28991;52.028;5.526;2023-07-13T06:26:03;24.40;53.90
40289;DHT22;28991;52.028;5.526;2023-07-13T06:28:30;24.40;53.90
40289;DHT22;28991;52.028;5.526;2023-07-13T06:30:57;24.40;53.80
40289;DHT22;28991;52.028;5.526;2023-07-13T06:33:23;24.40;53.80
40289;DHT22;28991;52.028;5.526;2023-07-13T06:35:49;24.40;53.70
40289;DHT22;28991;52.028;5.526;2023-07-13T06:38:14;24.50;53.70
40289;DHT22;28991;52.028;5.526;2023-07-13T06:40:41;24.50;53.70
40289;DHT22;28991;52.028;5.526;2023-07-13T06:43:07;24.50;53.70
40289;DHT22;28991;52.028;5.526;2023-07-13T06:45:43;24.50;53.60
40289;DHT22;28991;52.028;5.526;2023-07-13T06:48:11;24.50;53.60
40289;DHT22;28991;52.028;5.526;2023-07-13T06:50:37;24.60;53.70
40289;DHT22;28991;52.028;5.526;2023-07-13T06:53:02;24.60;53.70
40289;DHT22;28991;52.028;5.526;2023-07-13T06:55:28;24.60;53.60
40289;DHT22;28991;52.028;5.526;2023-07-13T06:57:54;24.60;54.20
40289;DHT22;28991;52.028;5.526;2023-07-13T07:00:19;24.60;53.60
40289;DHT22;28991;52.028;5.526;2023-07-13T07:02:45;24.60;53.60
40289;DHT22;28991;52.028;5.526;2023-07-13T07:05:11;24.70;53.80
40289;DHT22;28991;52.028;5.526;2023-07-13T07:07:36;24.70;53.60
40289;DHT22;28991;52.028;5.526;2023-07-13T07:10:02;24.70;53.60
40289;DHT22;28991;52.028;5.526;2023-07-13T07:12:28;24.70;53.60
40289;DHT22;28991;52.028;5.526;2023-07-13T07:14:54;24.70;53.60
40289;DHT22;28991;52.028;5.526;2023-07-13T07:17:20;24.70;53.60
40289;DHT22;28991;52.028;5.526;2023-07-13T07:19:45;24.70;53.60
40289;DHT22;28991;52.028;5.526;2023-07-13T07:22:11;24.70;53.60
40289;DHT22;28991;52.028;5.526;2023-07-13T07:24:37;24.70;53.60
40289;DHT22;28991;52.028;5.526;2023-07-13T07:27:03;24.70;53.60
40289;DHT22;28991;52.028;5.526;2023-07-13T07:29:28;24.70;53.60
40289;DHT22;28991;52.028;5.526;2023-07-13T07:31:54;24.70;53.60
40289;DHT22;28991;52.028;5.526;2023-07-13T07:34:20;24.70;53.50
40289;DHT22;28991;52.028;5.526;2023-07-13T07:36:45;24.70;53.60
40289;DHT22;28991;52.028;5.526;2023-07-13T07:39:11;24.70;53.50
40289;DHT22;28991;52.028;5.526;2023-07-13T07:41:37;24.70;53.50
40289;DHT22;28991;52.028;5.526;2023-07-13T07:44:03;24.80;53.60
40289;DHT22;28991;52.028;5.526;2023-07-13T07:46:29;24.70;53.50
40289;DHT22;28991;52.028;5.526;2023-07-13T07:48:56;24.70;53.50
40289;DHT22;28991;52.028;5.526;2023-07-13T07:51:21;24.70;53.50
40289;DHT22;28991;52.028;5.526;2023-07-13T07:53:47;24.70;53.50
40289;DHT22;28991;52.028;5.526;2023-07-13T07:56:13;24.70;54.00
40289;DHT22;28991;52.028;5.526;2023-07-13T07:58:42;24.80;53.60
40289;DHT22;28991;52.028;5.526;2023-07-13T08:01:08;24.80;53.50
40289;DHT22;28991;52.028;5.526;2023-07-13T08:03:34;24.80;53.50
40289;DHT22;28991;52.028;5.526;2023-07-13T08:05:59;24.70;53.50
40289;DHT22;28991;52.028;5.526;2023-07-13T08:08:25;24.80;53.50
40289;DHT22;28991;52.028;5.526;2023-07-13T08:10:52;24.80;53.50
40289;DHT22;28991;52.028;5.526;2023-07-13T08:13:18;24.80;53.50
40289;DHT22;28991;52.028;5.526;2023-07-13T08:15:43;24.80;53.50
40289;DHT22;28991;52.028;5.526;2023-07-13T08:18:09;24.80;53.50
40289;DHT22;28991;52.028;5.526;2023-07-13T08:20:38;24.80;54.10
40289;DHT22;28991;52.028;5.526;2023-07-13T08:23:04;24.80;53.50
40289;DHT22;28991;52.028;5.526;2023-07-13T08:25:30;24.80;53.50
40289;DHT22;28991;52.028;5.526;2023-07-13T08:27:56;24.80;53.50
40289;DHT22;28991;52.028;5.526;2023-07-13T08:30:21;24.80;53.50
40289;DHT22;28991;52.028;5.526;2023-07-13T08:32:47;24.90;53.60
40289;DHT22;28991;52.028;5.526;2023-07-13T08:35:13;24.80;53.50
40289;DHT22;28991;52.028;5.526;2023-07-13T08:37:39;24.90;53.50
40289;DHT22;28991;52.028;5.526;2023-07-13T08:40:05;24.80;53.40
40289;DHT22;28991;52.028;5.526;2023-07-13T08:42:42;24.90;53.50
40289;DHT22;28991;52.028;5.526;2023-07-13T08:45:16;24.90;53.50
40289;DHT22;28991;52.028;5.526;2023-07-13T08:48:15;24.90;53.50
40289;DHT22;28991;52.028;5.526;2023-07-13T08:51:09;24.90;53.50
40289;DHT22;28991;52.028;5.526;2023-07-13T08:53:45;24.90;53.40
40289;DHT22;28991;52.028;5.526;2023-07-13T08:56:18;24.90;53.50
40289;DHT22;28991;52.028;5.526;2023-07-13T08:58:48;24.90;53.50
40289;DHT22;28991;52.028;5.526;2023-07-13T09:01:33;24.90;53.50
40289;DHT22;28991;52.028;5.526;2023-07-13T09:04:11;24.90;53.50
40289;DHT22;28991;52.028;5.526;2023-07-13T09:07:11;24.90;53.50
40289;DHT22;28991;52.028;5.526;2023-07-13T09:15:41;24.90;53.40
40289;DHT22;28991;52.028;5.526;2023-07-13T09:18:16;25.00;53.50
40289;DHT22;28991;52.028;5.526;2023-07-13T09:23:30;24.90;53.40
40289;DHT22;28991;52.028;5.526;2023-07-13T09:26:10;24.90;53.40
40289;DHT22;28991;52.028;5.526;2023-07-13T09:28:45;24.90;53.40
40289;DHT22;28991;52.028;5.526;2023-07-13T09:31:23;24.90;53.90
40289;DHT22;28991;52.028;5.526;2023-07-13T09:33:49;24.90;53.40
40289;DHT22;28991;52.028;5.526;2023-07-13T09:36:20;25.00;53.30
40289;DHT22;28991;52.028;5.526;2023-07-13T09:38:48;25.00;53.40
40289;DHT22;28991;52.028;5.526;2023-07-13T09:44:12;25.00;53.40
40289;DHT22;28991;52.028;5.526;2023-07-13T09:46:46;25.00;53.40
40289;DHT22;28991;52.028;5.526;2023-07-13T09:49:12;25.00;53.40
40289;DHT22;28991;52.028;5.526;2023-07-13T09:51:40;25.10;53.40
40289;DHT22;28991;52.028;5.526;2023-07-13T09:54:09;25.10;53.40
40289;DHT22;28991;52.028;5.526;2023-07-13T09:56:42;25.10;53.40
40289;DHT22;28991;52.028;5.526;2023-07-13T09:59:20;25.10;53.40
40289;DHT22;28991;52.028;5.526;2023-07-13T10:01:46;25.10;53.30
40289;DHT22;28991;52.028;5.526;2023-07-13T10:04:17;25.10;53.40
40289;DHT22;28991;52.028;5.526;2023-07-13T10:06:45;25.10;53.40
40289;DHT22;28991;52.028;5.526;2023-07-13T10:09:15;25.10;53.40
40289;DHT22;28991;52.028;5.526;2023-07-13T10:11:42;25.10;53.40
40289;DHT22;28991;52.028;5.526;2023-07-13T10:14:16;25.10;53.50
40289;DHT22;28991;52.028;5.526;2023-07-13T10:16:44;25.10;53.40
40289;DHT22;28991;52.028;5.526;2023-07-13T10:19:27;25.10;53.40
40289;DHT22;28991;52.028;5.526;2023-07-13T10:22:02;25.10;53.40
40289;DHT22;28991;52.028;5.526;2023-07-13T10:24:32;25.10;53.40
40289;DHT22;28991;52.028;5.526;2023-07-13T10:29:26;25.10;53.40
40289;DHT22;28991;52.028;5.526;2023-07-13T10:31:53;25.10;53.40
40289;DHT22;28991;52.028;5.526;2023-07-13T10:34:19;25.10;53.40
40289;DHT22;28991;52.028;5.526;2023-07-13T10:36:46;25.10;53.40
40289;DHT22;28991;52.028;5.526;2023-07-13T10:39:19;25.10;53.40
40289;DHT22;28991;52.028;5.526;2023-07-13T10:41:49;25.10;53.40
40289;DHT22;28991;52.028;5.526;2023-07-13T10:44:21;25.10;53.40
40289;DHT22;28991;52.028;5.526;2023-07-13T10:46:55;25.10;53.40
40289;DHT22;28991;52.028;5.526;2023-07-13T10:49:21;25.10;53.40
40289;DHT22;28991;52.028;5.526;2023-07-13T10:51:47;25.10;53.40
40289;DHT22;28991;52.028;5.526;2023-07-13T10:54:27;25.10;53.40
40289;DHT22;28991;52.028;5.526;2023-07-13T10:59:42;25.10;53.40
40289;DHT22;28991;52.028;5.526;2023-07-13T11:02:25;25.10;53.40
40289;DHT22;28991;52.028;5.526;2023-07-13T11:04:53;25.10;53.40
40289;DHT22;28991;52.028;5.526;2023-07-13T11:07:30;25.10;53.40
40289;DHT22;28991;52.028;5.526;2023-07-13T11:09:58;25.10;53.40
40289;DHT22;28991;52.028;5.526;2023-07-13T11:17:34;25.30;53.30
40289;DHT22;28991;52.028;5.526;2023-07-13T11:22:47;25.50;53.40
40289;DHT22;28991;52.028;5.526;2023-07-13T11:25:32;25.60;52.60
40289;DHT22;28991;52.028;5.526;2023-07-13T11:30:43;25.80;52.30
40289;DHT22;28991;52.028;5.526;2023-07-13T11:36:04;25.90;52.00
40289;DHT22;28991;52.028;5.526;2023-07-13T11:38:37;26.00;52.00
40289;DHT22;28991;52.028;5.526;2023-07-13T11:41:15;26.00;51.80
40289;DHT22;28991;52.028;5.526;2023-07-13T11:43:42;26.10;51.80
40289;DHT22;28991;52.028;5.526;2023-07-13T11:46:21;26.10;51.80
40289;DHT22;28991;52.028;5.526;2023-07-13T11:48:47;26.10;51.80
40289;DHT22;28991;52.028;5.526;2023-07-13T11:51:32;26.10;51.80
40289;DHT22;28991;52.028;5.526;2023-07-13T11:54:04;26.10;51.90
40289;DHT22;28991;52.028;5.526;2023-07-13T11:56:30;26.00;51.90
40289;DHT22;28991;52.028;5.526;2023-07-13T11:58:59;26.10;52.00
40289;DHT22;28991;52.028;5.526;2023-07-13T12:01:31;26.00;52.00
40289;DHT22;28991;52.028;5.526;2023-07-13T12:04:01;26.00;52.60
40289;DHT22;28991;52.028;5.526;2023-07-13T12:06:30;26.00;52.00
40289;DHT22;28991;52.028;5.526;2023-07-13T12:08:58;26.10;52.10
40289;DHT22;28991;52.028;5.526;2023-07-13T12:11:25;26.10;52.00
40289;DHT22;28991;52.028;5.526;2023-07-13T12:13:50;26.10;51.90
40289;DHT22;28991;52.028;5.526;2023-07-13T12:18:53;26.10;51.80
40289;DHT22;28991;52.028;5.526;2023-07-13T12:21:19;26.10;51.80
40289;DHT22;28991;52.028;5.526;2023-07-13T12:23:48;26.20;51.80
40289;DHT22;28991;52.028;5.526;2023-07-13T12:26:15;26.10;51.70
40289;DHT22;28991;52.028;5.526;2023-07-13T12:28:53;26.10;51.70
40289;DHT22;28991;52.028;5.526;2023-07-13T12:31:36;26.20;51.80
40289;DHT22;28991;52.028;5.526;2023-07-13T12:34:21;26.10;51.70
40289;DHT22;28991;52.028;5.526;2023-07-13T12:36:53;26.10;51.70
40289;DHT22;28991;52.028;5.526;2023-07-13T12:39:37;26.10;51.70
40289;DHT22;28991;52.028;5.526;2023-07-13T12:42:31;26.20;51.70
40289;DHT22;28991;52.028;5.526;2023-07-13T12:45:24;26.20;51.80
40289;DHT22;28991;52.028;5.526;2023-07-13T12:47:59;26.10;51.60
40289;DHT22;28991;52.028;5.526;2023-07-13T12:50:50;26.20;51.60
40289;DHT22;28991;52.028;5.526;2023-07-13T12:53:21;26.20;51.60
40289;DHT22;28991;52.028;5.526;2023-07-13T12:55:57;26.20;51.50
40289;DHT22;28991;52.028;5.526;2023-07-13T12:58:39;26.20;51.50
40289;DHT22;28991;52.028;5.526;2023-07-13T13:01:07;26.20;51.30
40289;DHT22;28991;52.028;5.526;2023-07-13T13:03:37;26.20;51.30
40289;DHT22;28991;52.028;5.526;2023-07-13T13:06:06;26.20;51.20
40289;DHT22;28991;52.028;5.526;2023-07-13T13:08:36;26.30;51.20
40289;DHT22;28991;52.028;5.526;2023-07-13T13:11:03;26.30;51.20
40289;DHT22;28991;52.028;5.526;2023-07-13T13:13:28;26.20;51.10
40289;DHT22;28991;52.028;5.526;2023-07-13T13:15:54;26.20;51.10
40289;DHT22;28991;52.028;5.526;2023-07-13T13:18:21;26.30;51.10
40289;DHT22;28991;52.028;5.526;2023-07-13T13:20:48;26.20;51.00
40289;DHT22;28991;52.028;5.526;2023-07-13T13:23:17;26.20;51.00
40289;DHT22;28991;52.028;5.526;2023-07-13T13:25:48;26.20;50.90
40289;DHT22;28991;52.028;5.526;2023-07-13T13:28:19;26.20;50.90
40289;DHT22;28991;52.028;5.526;2023-07-13T13:30:46;26.20;50.80
40289;DHT22;28991;52.028;5.526;2023-07-13T13:33:15;26.20;50.80
40289;DHT22;28991;52.028;5.526;2023-07-13T13:35:41;26.20;50.70
40289;DHT22;28991;52.028;5.526;2023-07-13T13:38:16;26.20;50.70
40289;DHT22;28991;52.028;5.526;2023-07-13T13:40:43;26.20;50.60
40289;DHT22;28991;52.028;5.526;2023-07-13T13:43:16;26.20;50.60
40289;DHT22;28991;52.028;5.526;2023-07-13T13:45:43;26.20;50.50
40289;DHT22;28991;52.028;5.526;2023-07-13T13:48:15;26.30;50.60
40289;DHT22;28991;52.028;5.526;2023-07-13T13:50:42;26.30;50.60
40289;DHT22;28991;52.028;5.526;2023-07-13T13:53:12;26.30;50.70
40289;DHT22;28991;52.028;5.526;2023-07-13T13:55:39;26.20;50.40
40289;DHT22;28991;52.028;5.526;2023-07-13T13:58:07;26.30;50.60
40289;DHT22;28991;52.028;5.526;2023-07-13T14:00:33;26.30;50.50
40289;DHT22;28991;52.028;5.526;2023-07-13T14:02:59;26.30;50.50
40289;DHT22;28991;52.028;5.526;2023-07-13T14:05:25;26.30;50.50
40289;DHT22;28991;52.028;5.526;2023-07-13T14:07:52;26.20;50.40
40289;DHT22;28991;52.028;5.526;2023-07-13T14:10:19;26.30;50.50
40289;DHT22;28991;52.028;5.526;2023-07-13T14:12:52;26.20;50.40
40289;DHT22;28991;52.028;5.526;2023-07-13T14:15:21;26.30;50.40
40289;DHT22;28991;52.028;5.526;2023-07-13T14:17:47;26.30;50.50
40289;DHT22;28991;52.028;5.526;2023-07-13T14:20:17;26.20;50.40
40289;DHT22;28991;52.028;5.526;2023-07-13T14:22:43;26.30;50.50
40289;DHT22;28991;52.028;5.526;2023-07-13T14:25:13;26.20;50.40
40289;DHT22;28991;52.028;5.526;2023-07-13T14:27:41;26.20;50.40
40289;DHT22;28991;52.028;5.526;2023-07-13T14:30:19;26.30;50.50
40289;DHT22;28991;52.028;5.526;2023-07-13T14:32:46;26.30;50.50
40289;DHT22;28991;52.028;5.526;2023-07-13T14:35:17;26.20;50.40
40289;DHT22;28991;52.028;5.526;2023-07-13T14:37:44;26.30;50.50
40289;DHT22;28991;52.028;5.526;2023-07-13T14:40:16;26.20;50.40
40289;DHT22;28991;52.028;5.526;2023-07-13T14:42:42;26.20;50.40
40289;DHT22;28991;52.028;5.526;2023-07-13T14:45:16;26.20;50.40
40289;DHT22;28991;52.028;5.526;2023-07-13T14:47:43;26.20;50.40
40289;DHT22;28991;52.028;5.526;2023-07-13T14:50:31;26.20;50.40
40289;DHT22;28991;52.028;5.526;2023-07-13T14:52:58;26.20;50.40
40289;DHT22;28991;52.028;5.526;2023-07-13T14:55:24;26.30;50.50
40289;DHT22;28991;52.028;5.526;2023-07-13T14:57:51;26.20;50.40
40289;DHT22;28991;52.028;5.526;2023-07-13T15:00:19;26.20;50.40
40289;DHT22;28991;52.028;5.526;2023-07-13T15:02:51;26.20;50.40
40289;DHT22;28991;52.028;5.526;2023-07-13T15:05:21;26.20;50.40
40289;DHT22;28991;52.028;5.526;2023-07-13T15:07:48;26.20;50.40
40289;DHT22;28991;52.028;5.526;2023-07-13T15:10:27;26.30;50.50
40289;DHT22;28991;52.028;5.526;2023-07-13T15:13:01;26.20;50.40
40289;DHT22;28991;52.028;5.526;2023-07-13T15:15:38;26.20;50.40
40289;DHT22;28991;52.028;5.526;2023-07-13T15:18:07;26.20;50.50
40289;DHT22;28991;52.028;5.526;2023-07-13T15:20:34;26.20;50.50
40289;DHT22;28991;52.028;5.526;2023-07-13T15:23:01;26.20;50.50
40289;DHT22;28991;52.028;5.526;2023-07-13T15:25:29;26.20;50.50
40289;DHT22;28991;52.028;5.526;2023-07-13T15:27:56;26.20;50.60
40289;DHT22;28991;52.028;5.526;2023-07-13T15:30:29;26.10;50.50
40289;DHT22;28991;52.028;5.526;2023-07-13T15:33:11;26.20;50.60
40289;DHT22;28991;52.028;5.526;2023-07-13T15:35:37;26.20;50.50
40289;DHT22;28991;52.028;5.526;2023-07-13T15:38:14;26.10;50.50
40289;DHT22;28991;52.028;5.526;2023-07-13T15:40:41;26.20;50.50
40289;DHT22;28991;52.028;5.526;2023-07-13T15:43:17;26.10;50.50
40289;DHT22;28991;52.028;5.526;2023-07-13T15:45:43;26.20;50.50
40289;DHT22;28991;52.028;5.526;2023-07-13T15:48:20;26.10;50.50
40289;DHT22;28991;52.028;5.526;2023-07-13T15:50:51;26.20;50.50
40289;DHT22;28991;52.028;5.526;2023-07-13T15:53:23;26.20;50.60
40289;DHT22;28991;52.028;5.526;2023-07-13T15:55:49;26.20;50.60
40289;DHT22;28991;52.028;5.526;2023-07-13T15:58:16;26.10;50.50
40289;DHT22;28991;52.028;5.526;2023-07-13T16:00:42;26.10;50.60
40289;DHT22;28991;52.028;5.526;2023-07-13T16:03:08;26.10;50.60
40289;DHT22;28991;52.028;5.526;2023-07-13T16:05:34;26.10;50.60
40289;DHT22;28991;52.028;5.526;2023-07-13T16:08:01;26.10;50.60
40289;DHT22;28991;52.028;5.526;2023-07-13T16:10:32;26.10;50.60
40289;DHT22;28991;52.028;5.526;2023-07-13T16:13:00;26.10;50.60